createdAt,value
2022-10-30T00:31:40.255Z,1008.64
2022-10-30T00:32:20.735Z,1008.67
2022-10-30T00:33:01.395Z,1008.65
2022-10-30T00:33:41.707Z,1008.67
2022-10-30T00:34:22.150Z,1008.65
2022-10-30T00:35:02.616Z,1008.66
2022-10-30T00:35:43.101Z,1008.7
2022-10-30T00:36:23.628Z,1008.69
2022-10-30T00:37:04.071Z,1008.67
2022-10-30T00:37:44.596Z,1008.64
2022-10-30T00:38:25.060Z,1008.64
2022-10-30T00:39:05.588Z,1008.66
2022-10-30T00:39:46.072Z,1008.66
2022-10-30T00:40:26.497Z,1008.71
2022-10-30T00:41:06.998Z,1008.7
2022-10-30T00:41:47.522Z,1008.67
2022-10-30T00:42:28.032Z,1008.6
2022-10-30T00:43:08.479Z,1008.6
2022-10-30T00:43:48.927Z,1008.6
2022-10-30T00:44:29.389Z,1008.57
2022-10-30T00:45:09.903Z,1008.53
2022-10-30T00:45:50.374Z,1008.52
2022-10-30T00:46:30.860Z,1008.51
2022-10-30T00:47:11.403Z,1008.54
2022-10-30T00:47:51.839Z,1008.53
2022-10-30T00:48:32.336Z,1008.49
2022-10-30T00:49:12.804Z,1008.49
2022-10-30T00:49:53.385Z,1008.51
2022-10-30T00:50:33.838Z,1008.48
2022-10-30T00:51:14.285Z,1008.48
2022-10-30T00:51:54.812Z,1008.48
2022-10-30T00:52:35.299Z,1008.52
2022-10-30T00:53:15.852Z,1008.5
2022-10-30T00:53:56.247Z,1008.54
2022-10-30T00:54:36.716Z,1008.55
2022-10-30T00:55:17.190Z,1008.57
2022-10-30T00:55:57.705Z,1008.52
2022-10-30T00:56:38.201Z,1008.57
2022-10-30T00:57:18.711Z,1008.55
2022-10-30T00:57:59.183Z,1008.56
2022-10-30T00:58:39.671Z,1008.54
2022-10-30T00:59:20.159Z,1008.55
2022-10-30T01:00:00.631Z,1008.52
2022-10-30T01:01:21.703Z,1008.53
2022-10-30T01:02:02.327Z,1008.5
2022-10-30T01:02:42.721Z,1008.51
2022-10-30T01:03:23.069Z,1008.53
2022-10-30T01:04:03.545Z,1008.53
2022-10-30T01:07:17.470Z,1008.52
2022-10-30T01:07:58.352Z,1008.54
2022-10-30T01:08:38.418Z,1008.52
2022-10-30T01:09:18.923Z,1008.55
2022-10-30T01:09:59.314Z,1008.59
2022-10-30T01:11:20.316Z,1008.55
2022-10-30T01:12:00.828Z,1008.54
2022-10-30T01:12:41.297Z,1008.57
2022-10-30T01:13:21.778Z,1008.55
2022-10-30T01:14:02.306Z,1008.57
2022-10-30T01:14:42.761Z,1008.56
2022-10-30T01:15:23.223Z,1008.56
2022-10-30T01:16:03.770Z,1008.52
2022-10-30T01:16:44.261Z,1008.56
2022-10-30T01:17:24.681Z,1008.51
2022-10-30T01:18:05.164Z,1008.53
2022-10-30T01:18:45.675Z,1008.51
2022-10-30T01:19:26.171Z,1008.55
2022-10-30T01:20:06.645Z,1008.51
2022-10-30T01:20:47.164Z,1008.52
2022-10-30T01:22:08.167Z,1008.53
2022-10-30T01:22:48.636Z,1008.53
2022-10-30T01:23:29.178Z,1008.54
2022-10-30T01:24:50.120Z,1008.53
2022-10-30T01:25:30.611Z,1008.56
2022-10-30T01:26:11.068Z,1008.55
2022-10-30T01:26:51.608Z,1008.56
2022-10-30T01:27:32.064Z,1008.54
2022-10-30T01:28:12.547Z,1008.53
2022-10-30T01:28:53.039Z,1008.55
2022-10-30T01:29:33.556Z,1008.59
2022-10-30T01:30:14.049Z,1008.61
2022-10-30T01:30:54.565Z,1008.6
2022-10-30T01:31:35.022Z,1008.59
2022-10-30T01:32:15.485Z,1008.59
2022-10-30T01:32:56.428Z,1008.54
2022-10-30T01:33:36.493Z,1008.57
2022-10-30T01:34:16.974Z,1008.59
2022-10-30T01:34:57.542Z,1008.55
2022-10-30T01:35:37.969Z,1008.54
2022-10-30T01:36:18.518Z,1008.55
2022-10-30T01:36:58.934Z,1008.55
2022-10-30T01:37:39.430Z,1008.52
2022-10-30T01:38:19.939Z,1008.56
2022-10-30T01:39:00.404Z,1008.6
2022-10-30T01:39:40.932Z,1008.58
2022-10-30T01:40:21.398Z,1008.57
2022-10-30T01:41:01.844Z,1008.59
2022-10-30T01:41:42.341Z,1008.56
2022-10-30T01:42:22.876Z,1008.6
2022-10-30T01:43:03.335Z,1008.56
2022-10-30T01:43:43.851Z,1008.53
2022-10-30T01:44:24.295Z,1008.54
2022-10-30T01:45:04.813Z,1008.56
2022-10-30T01:45:45.342Z,1008.58
2022-10-30T01:46:25.832Z,1008.54
2022-10-30T01:47:06.341Z,1008.57
2022-10-30T01:47:46.869Z,1008.6
2022-10-30T01:48:27.371Z,1008.62
2022-10-30T01:49:07.901Z,1008.6
2022-10-30T01:49:48.365Z,1008.61
2022-10-30T01:50:28.919Z,1008.6
2022-10-30T01:51:09.437Z,1008.56
2022-10-30T01:51:49.902Z,1008.54
2022-10-30T01:52:30.387Z,1008.5
2022-10-30T01:53:10.831Z,1008.46
2022-10-30T01:53:51.344Z,1008.49
2022-10-30T01:54:31.794Z,1008.46
2022-10-30T01:55:12.306Z,1008.47
2022-10-30T01:55:52.774Z,1008.49
2022-10-30T01:56:33.314Z,1008.5
2022-10-30T01:57:13.754Z,1008.52
2022-10-30T01:57:54.257Z,1008.54
2022-10-30T01:58:34.750Z,1008.51
2022-10-30T02:01:02.829Z,1008.54
2022-10-30T02:01:43.285Z,1008.51
2022-10-30T02:02:23.805Z,1008.5
2022-10-30T02:03:04.104Z,1008.52
2022-10-30T02:03:44.648Z,1008.54
2022-10-30T02:04:25.207Z,1008.53
2022-10-30T02:05:05.721Z,1008.48
2022-10-30T02:05:46.164Z,1008.43
2022-10-30T02:06:26.743Z,1008.42
2022-10-30T02:07:07.182Z,1008.39
2022-10-30T02:07:47.715Z,1008.35
2022-10-30T02:08:28.213Z,1008.31
2022-10-30T02:09:08.687Z,1008.32
2022-10-30T02:09:49.156Z,1008.31
2022-10-30T02:10:29.657Z,1008.28
2022-10-30T02:11:10.137Z,1008.31
2022-10-30T02:11:50.699Z,1008.31
2022-10-30T02:12:31.142Z,1008.28
2022-10-30T02:13:11.641Z,1008.28
2022-10-30T02:13:52.139Z,1008.27
2022-10-30T02:14:32.616Z,1008.24
2022-10-30T02:15:13.111Z,1008.24
2022-10-30T02:15:53.595Z,1008.24
2022-10-30T02:16:34.145Z,1008.21
2022-10-30T02:17:14.581Z,1008.2
2022-10-30T02:17:55.323Z,1008.21
2022-10-30T02:18:35.608Z,1008.2
2022-10-30T02:19:16.095Z,1008.21
2022-10-30T02:19:56.581Z,1008.2
2022-10-30T02:20:37.037Z,1008.24
2022-10-30T02:21:17.505Z,1008.22
2022-10-30T02:21:58.081Z,1008.2
2022-10-30T02:22:38.480Z,1008.18
2022-10-30T02:23:19.048Z,1008.21
2022-10-30T02:23:59.497Z,1008.22
2022-10-30T02:24:40.012Z,1008.24
2022-10-30T02:25:20.474Z,1008.24
2022-10-30T02:26:00.941Z,1008.26
2022-10-30T02:26:41.420Z,1008.26
2022-10-30T02:27:21.914Z,1008.27
2022-10-30T02:28:02.435Z,1008.24
2022-10-30T02:28:42.956Z,1008.29
2022-10-30T02:29:23.371Z,1008.33
2022-10-30T02:30:03.880Z,1008.33
2022-10-30T02:30:44.404Z,1008.33
2022-10-30T02:31:24.858Z,1008.34
2022-10-30T02:32:05.401Z,1008.35
2022-10-30T02:32:45.843Z,1008.33
2022-10-30T02:36:20.152Z,1008.38
2022-10-30T02:37:00.730Z,1008.37
2022-10-30T02:37:41.151Z,1008.37
2022-10-30T02:38:21.627Z,1008.36
2022-10-30T02:39:02.122Z,1008.36
2022-10-30T02:39:42.601Z,1008.31
2022-10-30T02:40:23.104Z,1008.31
2022-10-30T02:41:03.611Z,1008.31
2022-10-30T02:41:44.074Z,1008.29
2022-10-30T02:42:24.572Z,1008.29
2022-10-30T02:43:05.105Z,1008.3
2022-10-30T02:43:45.663Z,1008.3
2022-10-30T02:44:26.149Z,1008.27
2022-10-30T02:45:06.702Z,1008.26
2022-10-30T02:45:47.186Z,1008.22
2022-10-30T02:46:27.648Z,1008.23
2022-10-30T02:47:08.175Z,1008.19
2022-10-30T02:47:48.693Z,1008.21
2022-10-30T02:49:09.673Z,1008.21
2022-10-30T02:49:50.203Z,1008.23
2022-10-30T02:50:30.666Z,1008.22
2022-10-30T02:51:11.195Z,1008.23
2022-10-30T02:51:51.629Z,1008.21
2022-10-30T02:52:32.125Z,1008.22
2022-10-30T02:53:12.594Z,1008.3
2022-10-30T02:53:53.114Z,1008.26
2022-10-30T02:54:33.698Z,1008.3
2022-10-30T02:55:14.146Z,1008.28
2022-10-30T02:55:54.610Z,1008.28
2022-10-30T02:56:35.122Z,1008.24
2022-10-30T02:57:15.593Z,1008.3
2022-10-30T02:57:56.130Z,1008.33
2022-10-30T02:58:36.609Z,1008.27
2022-10-30T02:59:17.117Z,1008.32
2022-10-30T02:59:57.608Z,1008.3
2022-10-30T03:00:38.117Z,1008.3
2022-10-30T03:01:18.694Z,1008.27
2022-10-30T03:01:59.125Z,1008.31
2022-10-30T03:02:39.606Z,1008.27
2022-10-30T03:03:21.508Z,1008.26
2022-10-30T03:04:00.542Z,1008.26
2022-10-30T03:04:41.014Z,1008.33
2022-10-30T03:05:21.517Z,1008.28
2022-10-30T03:06:02.033Z,1008.27
2022-10-30T03:06:42.512Z,1008.29
2022-10-30T03:07:23.009Z,1008.23
2022-10-30T03:08:03.522Z,1008.3
2022-10-30T03:09:24.514Z,1008.28
2022-10-30T03:10:04.968Z,1008.32
2022-10-30T03:10:45.494Z,1008.31
2022-10-30T03:11:25.968Z,1008.29
2022-10-30T03:12:06.354Z,1008.36
2022-10-30T03:12:46.841Z,1008.3
2022-10-30T03:13:27.345Z,1008.3
2022-10-30T03:14:07.796Z,1008.32
2022-10-30T03:14:48.317Z,1008.32
2022-10-30T03:15:28.781Z,1008.33
2022-10-30T03:16:09.255Z,1008.32
2022-10-30T03:16:49.758Z,1008.29
2022-10-30T03:17:30.270Z,1008.29
2022-10-30T03:18:10.676Z,1008.29
2022-10-30T03:18:51.182Z,1008.31
2022-10-30T03:19:31.680Z,1008.31
2022-10-30T03:20:12.178Z,1008.29
2022-10-30T03:20:52.682Z,1008.3
2022-10-30T03:21:33.160Z,1008.3
2022-10-30T03:22:13.688Z,1008.27
2022-10-30T03:22:54.242Z,1008.3
2022-10-30T03:23:34.689Z,1008.3
2022-10-30T03:24:15.198Z,1008.26
2022-10-30T03:24:55.682Z,1008.28
2022-10-30T03:25:36.194Z,1008.3
2022-10-30T03:26:16.726Z,1008.29
2022-10-30T03:26:57.146Z,1008.33
2022-10-30T03:27:37.664Z,1008.34
2022-10-30T03:28:18.101Z,1008.31
2022-10-30T03:31:17.005Z,1008.33
2022-10-30T03:31:59.041Z,1008.34
2022-10-30T03:32:39.512Z,1008.32
2022-10-30T03:33:20.146Z,1008.37
2022-10-30T03:34:00.436Z,1008.33
2022-10-30T03:34:40.999Z,1008.34
2022-10-30T03:35:21.501Z,1008.33
2022-10-30T03:36:01.937Z,1008.33
2022-10-30T03:36:42.445Z,1008.33
2022-10-30T03:37:22.903Z,1008.28
2022-10-30T03:38:03.418Z,1008.35
2022-10-30T03:38:43.893Z,1008.33
2022-10-30T03:39:24.419Z,1008.35
2022-10-30T03:40:04.867Z,1008.34
2022-10-30T03:40:45.347Z,1008.36
2022-10-30T03:41:25.823Z,1008.34
2022-10-30T03:42:06.318Z,1008.33
2022-10-30T03:42:46.807Z,1008.38
2022-10-30T03:43:27.398Z,1008.36
2022-10-30T03:44:07.875Z,1008.4
2022-10-30T03:44:48.289Z,1008.39
2022-10-30T03:45:28.778Z,1008.44
2022-10-30T03:46:09.279Z,1008.45
2022-10-30T03:47:30.356Z,1008.5
2022-10-30T03:48:10.803Z,1008.51
2022-10-30T03:48:51.241Z,1008.5
2022-10-30T03:49:31.699Z,1008.52
2022-10-30T03:50:12.240Z,1008.57
2022-10-30T03:50:52.692Z,1008.56
2022-10-30T03:51:33.200Z,1008.52
2022-10-30T03:52:13.621Z,1008.56
2022-10-30T03:52:54.086Z,1008.57
2022-10-30T03:53:34.644Z,1008.57
2022-10-30T03:54:15.105Z,1008.55
2022-10-30T03:54:55.573Z,1008.57
2022-10-30T03:55:36.044Z,1008.56
2022-10-30T03:56:16.512Z,1008.55
2022-10-30T03:56:57.102Z,1008.56
2022-10-30T03:57:37.556Z,1008.56
2022-10-30T03:58:18.038Z,1008.58
2022-10-30T03:58:58.519Z,1008.57
2022-10-30T03:59:39.002Z,1008.59
2022-10-30T04:00:19.512Z,1008.58
2022-10-30T04:01:00.026Z,1008.56
2022-10-30T04:01:40.597Z,1008.56
2022-10-30T04:02:20.964Z,1008.58
2022-10-30T04:03:01.721Z,1008.55
2022-10-30T04:03:41.894Z,1008.63
2022-10-30T04:04:22.343Z,1008.62
2022-10-30T04:05:03.842Z,1008.63
2022-10-30T04:05:44.465Z,1008.64
2022-10-30T04:06:24.971Z,1008.66
2022-10-30T04:07:05.456Z,1008.68
2022-10-30T04:07:45.943Z,1008.61
2022-10-30T04:08:26.422Z,1008.65
2022-10-30T04:09:06.941Z,1008.63
2022-10-30T04:09:47.398Z,1008.61
2022-10-30T04:10:28.720Z,1008.63
2022-10-30T04:11:09.276Z,1008.63
2022-10-30T04:11:49.729Z,1008.63
2022-10-30T04:12:31.094Z,1008.61
2022-10-30T04:13:11.406Z,1008.59
2022-10-30T04:13:51.898Z,1008.64
2022-10-30T04:14:32.375Z,1008.6
2022-10-30T04:15:12.887Z,1008.6
2022-10-30T04:15:55.898Z,1008.65
2022-10-30T04:16:33.857Z,1008.58
2022-10-30T04:17:14.352Z,1008.63
2022-10-30T04:17:55.092Z,1008.66
2022-10-30T04:18:35.384Z,1008.65
2022-10-30T04:19:15.881Z,1008.67
2022-10-30T04:19:56.348Z,1008.63
2022-10-30T04:20:36.794Z,1008.62
2022-10-30T04:21:17.355Z,1008.61
2022-10-30T04:21:57.804Z,1008.61
2022-10-30T04:22:38.336Z,1008.6
2022-10-30T04:23:19.703Z,1008.62
2022-10-30T04:24:00.151Z,1008.63
2022-10-30T04:24:40.680Z,1008.61
2022-10-30T04:25:21.128Z,1008.58
2022-10-30T04:26:01.638Z,1008.6
2022-10-30T04:26:42.069Z,1008.58
2022-10-30T04:27:22.559Z,1008.59
2022-10-30T04:28:03.042Z,1008.58
2022-10-30T04:28:43.593Z,1008.57
2022-10-30T04:29:24.010Z,1008.58
2022-10-30T04:30:04.529Z,1008.62
2022-10-30T04:30:44.983Z,1008.59
2022-10-30T04:31:25.443Z,1008.56
2022-10-30T04:32:46.475Z,1008.55
2022-10-30T04:33:26.977Z,1008.57
2022-10-30T04:34:07.410Z,1008.56
2022-10-30T04:37:21.991Z,1008.63
2022-10-30T04:38:02.656Z,1008.61
2022-10-30T04:38:43.201Z,1008.58
2022-10-30T04:39:23.624Z,1008.61
2022-10-30T04:40:04.147Z,1008.62
2022-10-30T04:40:44.632Z,1008.59
2022-10-30T04:41:25.159Z,1008.62
2022-10-30T04:42:05.683Z,1008.59
2022-10-30T04:42:46.159Z,1008.59
2022-10-30T04:43:26.655Z,1008.59
2022-10-30T04:44:07.180Z,1008.58
2022-10-30T04:44:47.603Z,1008.56
2022-10-30T04:45:28.092Z,1008.55
2022-10-30T04:46:08.596Z,1008.58
2022-10-30T04:46:49.134Z,1008.57
2022-10-30T04:47:29.597Z,1008.59
2022-10-30T04:48:10.065Z,1008.59
2022-10-30T04:48:50.573Z,1008.61
2022-10-30T04:49:31.048Z,1008.6
2022-10-30T04:50:11.579Z,1008.6
2022-10-30T04:50:52.076Z,1008.59
2022-10-30T04:51:32.555Z,1008.57
2022-10-30T04:52:13.067Z,1008.56
2022-10-30T04:52:53.629Z,1008.57
2022-10-30T04:53:34.065Z,1008.55
2022-10-30T04:54:14.553Z,1008.52
2022-10-30T04:54:55.047Z,1008.51
2022-10-30T04:55:35.531Z,1008.55
2022-10-30T04:56:16.007Z,1008.52
2022-10-30T04:56:56.496Z,1008.47
2022-10-30T04:57:37.383Z,1008.52
2022-10-30T04:58:17.823Z,1008.48
2022-10-30T04:58:58.312Z,1008.49
2022-10-30T04:59:38.768Z,1008.46
2022-10-30T05:00:19.249Z,1008.45
2022-10-30T05:01:00.437Z,1008.42
2022-10-30T05:01:40.378Z,1008.4
2022-10-30T05:03:01.251Z,1008.42
2022-10-30T05:03:41.715Z,1008.41
2022-10-30T05:04:22.269Z,1008.4
2022-10-30T05:05:03.572Z,1008.34
2022-10-30T05:05:44.035Z,1008.38
2022-10-30T05:06:24.529Z,1008.34
2022-10-30T05:07:05.016Z,1008.34
2022-10-30T05:07:45.558Z,1008.31
2022-10-30T05:08:26.041Z,1008.34
2022-10-30T05:09:06.510Z,1008.32
2022-10-30T05:09:47.044Z,1008.3
2022-10-30T05:10:27.731Z,1008.32
2022-10-30T05:11:08.261Z,1008.36
2022-10-30T05:11:48.715Z,1008.33
2022-10-30T05:12:29.209Z,1008.34
2022-10-30T05:13:09.720Z,1008.33
2022-10-30T05:13:50.228Z,1008.3
2022-10-30T05:14:30.662Z,1008.26
2022-10-30T05:15:11.165Z,1008.28
2022-10-30T05:15:51.687Z,1008.31
2022-10-30T05:16:32.203Z,1008.26
2022-10-30T05:17:12.621Z,1008.24
2022-10-30T05:17:53.127Z,1008.28
2022-10-30T05:18:33.628Z,1008.24
2022-10-30T05:19:14.103Z,1008.24
2022-10-30T05:19:54.563Z,1008.23
2022-10-30T05:20:35.023Z,1008.24
2022-10-30T05:21:15.503Z,1008.25
2022-10-30T05:21:56.061Z,1008.21
2022-10-30T05:22:36.502Z,1008.18
2022-10-30T05:23:16.999Z,1008.13
2022-10-30T05:23:57.504Z,1008.15
2022-10-30T05:24:38.036Z,1008.15
2022-10-30T05:25:18.541Z,1008.11
2022-10-30T05:25:58.975Z,1008.11
2022-10-30T05:26:39.483Z,1008.07
2022-10-30T05:27:19.956Z,1008.11
2022-10-30T05:28:00.899Z,1008.09
2022-10-30T05:28:41.002Z,1008.09
2022-10-30T05:29:21.630Z,1008.12
2022-10-30T05:30:02.112Z,1008.11
2022-10-30T05:30:42.570Z,1008.09
2022-10-30T05:31:23.083Z,1008.1
2022-10-30T05:32:03.749Z,1008.14
2022-10-30T05:32:44.090Z,1008.11
2022-10-30T05:33:24.588Z,1008.09
2022-10-30T05:34:07.110Z,1008.06
2022-10-30T05:34:45.571Z,1008.05
2022-10-30T05:35:26.099Z,1008.1
2022-10-30T05:36:06.575Z,1008.03
2022-10-30T05:36:47.059Z,1008.03
2022-10-30T05:37:27.596Z,1008.04
2022-10-30T05:38:07.975Z,1007.99
2022-10-30T05:38:48.536Z,1008
2022-10-30T05:39:29.000Z,1008.04
2022-10-30T05:40:09.476Z,1008.01
2022-10-30T05:40:50.022Z,1008
2022-10-30T05:41:30.444Z,1008.02
2022-10-30T05:42:13.629Z,1008.03
2022-10-30T05:42:51.415Z,1008.03
2022-10-30T05:43:31.970Z,1008.02
2022-10-30T05:44:12.467Z,1008.05
2022-10-30T05:45:00.722Z,1008.01
2022-10-30T05:45:33.473Z,1007.98
2022-10-30T05:46:14.080Z,1008.01
2022-10-30T05:47:35.028Z,1007.99
2022-10-30T05:48:15.573Z,1008.03
2022-10-30T05:48:56.078Z,1007.99
2022-10-30T05:49:36.590Z,1008.01
2022-10-30T05:50:17.046Z,1008
2022-10-30T05:50:57.523Z,1008.01
2022-10-30T05:51:40.441Z,1008.02
2022-10-30T05:52:18.761Z,1008.03
2022-10-30T06:31:15.654Z,1008.23
2022-10-30T06:31:57.759Z,1008.27
2022-10-30T06:32:37.251Z,1008.3
2022-10-30T06:33:17.796Z,1008.28
2022-10-30T06:33:58.211Z,1008.28
2022-10-30T06:34:38.683Z,1008.27
2022-10-30T06:35:19.225Z,1008.29
2022-10-30T06:35:59.625Z,1008.28
2022-10-30T06:36:40.151Z,1008.27
2022-10-30T06:37:20.654Z,1008.23
2022-10-30T06:38:01.077Z,1008.25
2022-10-30T06:38:41.487Z,1008.25
2022-10-30T06:39:22.844Z,1008.29
2022-10-30T06:40:03.367Z,1008.3
2022-10-30T06:40:43.847Z,1008.29
2022-10-30T06:41:27.499Z,1008.33
2022-10-30T06:42:04.810Z,1008.33
2022-10-30T06:42:45.312Z,1008.35
2022-10-30T06:43:25.816Z,1008.34
2022-10-30T06:44:06.295Z,1008.37
2022-10-30T06:44:46.723Z,1008.32
2022-10-30T06:45:27.208Z,1008.31
2022-10-30T06:46:48.201Z,1008.36
2022-10-30T06:47:28.669Z,1008.32
2022-10-30T06:48:09.110Z,1008.32
2022-10-30T06:48:49.571Z,1008.35
2022-10-30T06:49:30.070Z,1008.36
2022-10-30T06:50:10.528Z,1008.32
2022-10-30T06:50:51.132Z,1008.4
2022-10-30T06:51:31.513Z,1008.37
2022-10-30T06:52:11.963Z,1008.38
2022-10-30T06:52:52.442Z,1008.36
2022-10-30T06:53:32.900Z,1008.4
2022-10-30T06:54:13.370Z,1008.38
2022-10-30T06:54:53.975Z,1008.39
2022-10-30T06:55:34.457Z,1008.38
2022-10-30T06:56:14.975Z,1008.4
2022-10-30T06:56:55.424Z,1008.42
2022-10-30T06:58:16.393Z,1008.41
2022-10-30T06:58:56.944Z,1008.42
2022-10-30T06:59:37.464Z,1008.43
2022-10-30T07:00:17.949Z,1008.44
2022-10-30T07:00:58.432Z,1008.45
2022-10-30T07:01:38.976Z,1008.38
2022-10-30T07:02:19.527Z,1008.39
2022-10-30T07:03:00.493Z,1008.36
2022-10-30T07:03:40.460Z,1008.4
2022-10-30T07:04:20.979Z,1008.36
2022-10-30T07:05:01.462Z,1008.37
2022-10-30T07:05:41.957Z,1008.34
2022-10-30T07:06:22.476Z,1008.39
2022-10-30T07:07:02.927Z,1008.35
2022-10-30T07:07:43.405Z,1008.37
2022-10-30T07:08:23.889Z,1008.39
2022-10-30T07:09:04.397Z,1008.33
2022-10-30T07:09:44.883Z,1008.37
2022-10-30T07:10:25.363Z,1008.38
2022-10-30T07:11:05.904Z,1008.39
2022-10-30T07:11:46.343Z,1008.41
2022-10-30T07:12:26.877Z,1008.38
2022-10-30T07:13:07.318Z,1008.39
2022-10-30T07:13:47.773Z,1008.37
2022-10-30T07:14:28.273Z,1008.37
2022-10-30T07:15:49.217Z,1008.41
2022-10-30T07:16:29.792Z,1008.41
2022-10-30T07:17:10.165Z,1008.4
2022-10-30T07:17:50.703Z,1008.37
2022-10-30T07:18:31.175Z,1008.39
2022-10-30T07:19:11.616Z,1008.44
2022-10-30T07:19:52.096Z,1008.38
2022-10-30T07:20:32.557Z,1008.36
2022-10-30T07:21:13.019Z,1008.39
2022-10-30T07:21:53.484Z,1008.42
2022-10-30T07:22:33.965Z,1008.41
2022-10-30T07:23:14.497Z,1008.43
2022-10-30T07:23:54.973Z,1008.47
2022-10-30T07:24:35.466Z,1008.4
2022-10-30T07:26:00.961Z,1008.44
2022-10-30T07:26:36.914Z,1008.41
2022-10-30T07:27:17.339Z,1008.44
2022-10-30T07:27:58.241Z,1008.41
2022-10-30T07:28:38.332Z,1008.4
2022-10-30T07:29:18.817Z,1008.38
2022-10-30T07:29:59.315Z,1008.38
2022-10-30T07:30:39.763Z,1008.34
2022-10-30T07:31:24.197Z,1008.36
2022-10-30T07:32:04.058Z,1008.34
2022-10-30T07:32:41.195Z,1008.39
2022-10-30T07:33:21.706Z,1008.36
2022-10-30T07:34:02.148Z,1008.36
2022-10-30T07:34:42.641Z,1008.38
2022-10-30T07:35:23.082Z,1008.34
2022-10-30T07:36:03.551Z,1008.37
2022-10-30T07:36:44.023Z,1008.4
2022-10-30T07:37:24.515Z,1008.37
2022-10-30T07:38:04.990Z,1008.36
2022-10-30T07:38:45.479Z,1008.43
2022-10-30T07:39:26.003Z,1008.38
2022-10-30T07:40:11.598Z,1008.39
2022-10-30T07:40:47.015Z,1008.44
2022-10-30T07:41:27.435Z,1008.37
2022-10-30T07:42:07.930Z,1008.35
2022-10-30T07:42:48.436Z,1008.38
2022-10-30T07:43:28.937Z,1008.39
2022-10-30T07:44:09.450Z,1008.35
2022-10-30T07:44:49.925Z,1008.38
2022-10-30T07:45:30.329Z,1008.4
2022-10-30T07:46:10.873Z,1008.41
2022-10-30T07:46:51.319Z,1008.39
2022-10-30T07:47:31.852Z,1008.43
2022-10-30T07:48:12.278Z,1008.44
2022-10-30T07:48:52.765Z,1008.43
2022-10-30T07:49:33.226Z,1008.44
2022-10-30T07:50:13.703Z,1008.44
2022-10-30T07:50:54.201Z,1008.46
2022-10-30T07:51:34.691Z,1008.42
2022-10-30T07:52:17.257Z,1008.43
2022-10-30T07:53:36.081Z,1008.42
2022-10-30T07:54:16.543Z,1008.43
2022-10-30T07:54:57.009Z,1008.43
2022-10-30T07:55:37.495Z,1008.47
2022-10-30T07:56:18.011Z,1008.49
2022-10-30T07:56:58.487Z,1008.5
2022-10-30T07:57:38.908Z,1008.5
2022-10-30T07:58:19.445Z,1008.53
2022-10-30T07:58:59.918Z,1008.49
2022-10-30T07:59:40.464Z,1008.49
2022-10-30T08:00:20.907Z,1008.49
2022-10-30T08:01:01.555Z,1008.5
2022-10-30T08:01:44.112Z,1008.53
2022-10-30T08:02:24.593Z,1008.52
2022-10-30T08:03:04.956Z,1008.54
2022-10-30T08:03:45.424Z,1008.48
2022-10-30T08:04:25.924Z,1008.53
2022-10-30T08:05:06.393Z,1008.53
2022-10-30T08:05:46.871Z,1008.53
2022-10-30T08:07:07.848Z,1008.51
2022-10-30T08:07:48.989Z,1008.51
2022-10-30T08:08:29.426Z,1008.53
2022-10-30T08:09:10.078Z,1008.47
2022-10-30T08:09:50.428Z,1008.48
2022-10-30T08:10:30.930Z,1008.48
2022-10-30T08:11:11.385Z,1008.49
2022-10-30T08:11:51.978Z,1008.46
2022-10-30T08:12:32.578Z,1008.46
2022-10-30T08:13:13.266Z,1008.49
2022-10-30T08:13:53.779Z,1008.52
2022-10-30T08:14:34.223Z,1008.53
2022-10-30T08:15:14.722Z,1008.55
2022-10-30T08:15:55.184Z,1008.58
2022-10-30T08:16:35.711Z,1008.54
2022-10-30T08:17:16.203Z,1008.53
2022-10-30T08:17:57.004Z,1008.55
2022-10-30T08:18:37.186Z,1008.58
2022-10-30T08:19:17.673Z,1008.54
2022-10-30T08:19:58.161Z,1008.53
2022-10-30T08:20:39.087Z,1008.56
2022-10-30T08:21:19.182Z,1008.61
2022-10-30T08:22:00.011Z,1008.55
2022-10-30T08:22:40.112Z,1008.53
2022-10-30T08:23:20.627Z,1008.56
2022-10-30T08:24:01.137Z,1008.55
2022-10-30T08:24:41.672Z,1008.52
2022-10-30T08:27:01.007Z,1008.51
2022-10-30T08:27:54.002Z,1008.51
2022-10-30T08:30:26.125Z,1008.48
2022-10-30T08:31:06.572Z,1008.47
2022-10-30T08:31:47.064Z,1008.44
2022-10-30T08:32:27.589Z,1008.5
2022-10-30T08:33:08.080Z,1008.47
2022-10-30T08:33:48.561Z,1008.49
2022-10-30T08:34:29.039Z,1008.49
2022-10-30T08:35:09.541Z,1008.48
2022-10-30T08:35:50.631Z,1008.46
2022-10-30T08:36:31.138Z,1008.51
2022-10-30T08:37:11.623Z,1008.46
2022-10-30T08:37:52.267Z,1008.46
2022-10-30T08:38:32.729Z,1008.43
2022-10-30T08:39:13.196Z,1008.42
2022-10-30T08:39:53.715Z,1008.41
2022-10-30T08:40:34.214Z,1008.4
2022-10-30T08:41:14.730Z,1008.41
2022-10-30T08:41:55.192Z,1008.4
2022-10-30T08:42:35.730Z,1008.41
2022-10-30T08:43:16.175Z,1008.39
2022-10-30T08:43:56.615Z,1008.37
2022-10-30T08:44:37.131Z,1008.37
2022-10-30T08:45:17.631Z,1008.4
2022-10-30T08:46:38.635Z,1008.38
2022-10-30T08:47:19.136Z,1008.36
2022-10-30T08:48:00.132Z,1008.39
2022-10-30T08:48:40.654Z,1008.37
2022-10-30T08:49:21.139Z,1008.37
2022-10-30T08:50:01.683Z,1008.33
2022-10-30T08:50:42.163Z,1008.35
2022-10-30T08:51:22.607Z,1008.35
2022-10-30T08:52:03.062Z,1008.32
2022-10-30T08:52:43.649Z,1008.34
2022-10-30T08:53:24.107Z,1008.34
2022-10-30T08:54:04.580Z,1008.31
2022-10-30T08:54:45.082Z,1008.33
2022-10-30T08:55:25.578Z,1008.31
2022-10-30T08:56:06.054Z,1008.32
2022-10-30T08:56:46.551Z,1008.36
2022-10-30T08:57:28.231Z,1008.3
2022-10-30T09:01:01.147Z,1008.32
2022-10-30T09:01:38.241Z,1008.31
2022-10-30T09:02:19.473Z,1008.31
2022-10-30T09:03:00.845Z,1008.33
2022-10-30T09:03:41.314Z,1008.3
2022-10-30T09:04:22.383Z,1008.28
2022-10-30T09:05:03.317Z,1008.3
2022-10-30T09:05:46.194Z,1008.3
2022-10-30T09:06:27.201Z,1008.29
2022-10-30T09:07:10.266Z,1008.33
2022-10-30T09:07:49.196Z,1008.31
2022-10-30T09:08:30.198Z,1008.26
2022-10-30T09:09:11.196Z,1008.3
2022-10-30T09:09:52.180Z,1008.25
2022-10-30T09:10:33.246Z,1008.25
2022-10-30T09:11:14.230Z,1008.21
2022-10-30T09:11:55.297Z,1008.25
2022-10-30T09:12:36.211Z,1008.24
2022-10-30T09:13:17.188Z,1008.24
2022-10-30T09:13:58.171Z,1008.23
2022-10-30T09:14:40.327Z,1008.23
2022-10-30T09:15:21.323Z,1008.26
2022-10-30T09:16:02.320Z,1008.19
2022-10-30T09:16:43.352Z,1008.22
2022-10-30T09:17:24.361Z,1008.2
2022-10-30T09:18:05.752Z,1008.21
2022-10-30T09:18:46.784Z,1008.2
2022-10-30T09:19:27.751Z,1008.18
2022-10-30T09:20:08.771Z,1008.21
2022-10-30T09:20:49.873Z,1008.17
2022-10-30T09:21:30.868Z,1008.2
2022-10-30T09:22:11.860Z,1008.15
2022-10-30T09:22:52.866Z,1008.16
2022-10-30T09:23:34.045Z,1008.18
2022-10-30T09:26:33.460Z,1008.13
2022-10-30T09:27:13.968Z,1008.15
2022-10-30T09:27:54.412Z,1008.1
2022-10-30T09:28:34.906Z,1008.17
2022-10-30T09:29:15.332Z,1008.19
2022-10-30T09:29:55.862Z,1008.11
2022-10-30T09:30:36.339Z,1008.15
2022-10-30T09:31:16.824Z,1008.16
2022-10-30T09:31:57.294Z,1008.13
2022-10-30T09:32:37.966Z,1008.17
2022-10-30T09:33:18.429Z,1008.14
2022-10-30T09:33:58.975Z,1008.13
2022-10-30T09:34:39.483Z,1008.14
2022-10-30T09:35:19.982Z,1008.16
2022-10-30T09:36:00.463Z,1008.11
2022-10-30T09:36:40.933Z,1008.21
2022-10-30T09:37:21.406Z,1008.14
2022-10-30T09:38:02.541Z,1008.14
2022-10-30T09:38:42.636Z,1008.12
2022-10-30T09:39:23.114Z,1008.14
2022-10-30T09:40:03.717Z,1008.2
2022-10-30T09:40:44.123Z,1008.17
2022-10-30T09:41:24.645Z,1008.15
2022-10-30T09:42:05.188Z,1008.12
2022-10-30T09:42:45.701Z,1008.11
2022-10-30T09:43:26.177Z,1008.14
2022-10-30T09:44:06.658Z,1008.09
2022-10-30T09:44:52.449Z,1008.11
2022-10-30T09:45:29.604Z,1008.09
2022-10-30T09:46:08.987Z,1008.05
2022-10-30T09:46:48.710Z,1008.12
2022-10-30T09:47:29.200Z,1008.05
2022-10-30T09:48:09.728Z,1008.12
2022-10-30T09:48:50.164Z,1008.08
2022-10-30T09:49:34.209Z,1008.12
2022-10-30T09:50:14.113Z,1008.14
2022-10-30T09:50:54.604Z,1008.1
2022-10-30T09:51:35.139Z,1008.12
2022-10-30T09:52:15.566Z,1008.1
2022-10-30T09:52:56.567Z,1008.07
2022-10-30T09:53:36.808Z,1008.09
2022-10-30T09:54:17.338Z,1008.04